Time;durP1;ratioP1;P1;durP2;ratioP2;P2;SDS_P1;SDS_P2;PMS_P1;PMS_P2;Temp;Humidity;BMP_temperature;BMP_pressure;BME280_temperature;BME280_humidity;BME280_pressure;Samples;Min_cycle;Max_cycle;Signal;HPM_P1;HPM_P2
2021/12/27 00:01:41;;;;;;;22.13;13.25;;;0.80;80.00;;;;;;5104128;27;20054;-64
2021/12/27 00:04:06;;;;;;;17.73;9.93;;;0.90;79.70;;;;;;5126303;27;20128;-64
2021/12/27 00:06:32;;;;;;;16.50;9.65;;;0.90;79.70;;;;;;5126739;27;20042;-65
2021/12/27 00:08:58;;;;;;;16.85;9.80;;;1.00;79.50;;;;;;5100780;28;20075;-65
2021/12/27 00:11:24;;;;;;;17.33;10.05;;;1.10;79.50;;;;;;5087864;28;20043;-64
2021/12/27 00:13:49;;;;;;;20.27;10.50;;;1.10;79.50;;;;;;5106676;27;20084;-65
2021/12/27 00:16:15;;;;;;;17.30;10.15;;;1.10;79.60;;;;;;5127585;27;20043;-65
2021/12/27 00:18:41;;;;;;;22.20;11.35;;;1.10;79.60;;;;;;5106554;28;20399;-66
2021/12/27 00:21:07;;;;;;;17.88;10.13;;;1.10;79.70;;;;;;5119881;28;20043;-66
2021/12/27 00:23:33;;;;;;;16.48;9.80;;;1.10;79.70;;;;;;5126575;28;20031;-66
2021/12/27 00:25:59;;;;;;;16.17;9.35;;;1.10;79.60;;;;;;5127011;27;20050;-66
2021/12/27 00:28:25;;;;;;;19.77;10.32;;;1.10;79.60;;;;;;5125922;28;20078;-66
2021/12/27 00:30:50;;;;;;;19.50;10.70;;;1.10;79.80;;;;;;5126511;28;20071;-65
2021/12/27 00:33:16;;;;;;;20.20;10.52;;;1.10;79.80;;;;;;5114099;28;20510;-66
2021/12/27 00:35:42;;;;;;;18.42;10.68;;;1.10;79.90;;;;;;5122597;28;20054;-66
2021/12/27 00:38:08;;;;;;;17.80;9.77;;;1.20;79.80;;;;;;5082218;28;20035;-66
2021/12/27 00:40:34;;;;;;;19.73;9.65;;;1.20;79.70;;;;;;5120902;28;20080;-65
2021/12/27 00:43:00;;;;;;;19.77;10.85;;;1.20;79.90;;;;;;5107617;28;20039;-65
2021/12/27 00:45:26;;;;;;;19.00;12.10;;;1.20;79.80;;;;;;5128270;28;20372;-66
2021/12/27 00:47:51;;;;;;;15.70;11.07;;;1.20;79.90;;;;;;5116129;28;20046;-66
2021/12/27 00:50:17;;;;;;;18.17;9.90;;;1.20;79.90;;;;;;5110212;28;20129;-66
2021/12/27 00:52:43;;;;;;;16.73;10.27;;;1.20;79.80;;;;;;5127019;28;20042;-66
2021/12/27 00:55:11;;;;;;;22.30;10.95;;;1.20;79.80;;;;;;5128214;28;20032;-66
2021/12/27 00:57:37;;;;;;;19.48;11.32;;;1.20;79.80;;;;;;5109255;28;20399;-66
2021/12/27 01:00:12;;;;;;;19.00;10.52;;;1.20;79.90;;;;;;5117824;28;20416;-65
2021/12/27 01:02:38;;;;;;;19.15;10.68;;;1.30;79.80;;;;;;5128879;27;20090;-66
2021/12/27 01:05:04;;;;;;;21.02;11.80;;;1.20;79.90;;;;;;5127242;28;20466;-66
2021/12/27 01:07:30;;;;;;;19.80;10.52;;;1.20;80.20;;;;;;5125051;28;20040;-66
2021/12/27 01:10:18;;;;;;;19.02;10.73;;;1.20;80.10;;;;;;5128357;28;20130;-66
2021/12/27 01:17:45;;;;;;;18.75;11.10;;;1.20;80.30;;;;;;5128091;27;20046;-66
2021/12/27 01:20:14;;;;;;;17.50;10.82;;;1.20;80.20;;;;;;5116004;27;20365;-65
2021/12/27 01:22:40;;;;;;;17.50;9.50;;;1.20;80.50;;;;;;5108434;27;20079;-65
2021/12/27 01:25:07;;;;;;;19.83;11.50;;;1.20;80.50;;;;;;5121701;27;20568;-66
2021/12/27 01:27:34;;;;;;;19.73;10.52;;;1.20;80.60;;;;;;5127964;27;20031;-65
2021/12/27 01:29:59;;;;;;;18.63;10.50;;;1.30;80.50;;;;;;5124174;27;20039;-66
2021/12/27 01:32:30;;;;;;;20.95;12.27;;;1.30;80.40;;;;;;5131476;27;20038;-66
2021/12/27 01:34:56;;;;;;;16.50;9.93;;;1.30;80.30;;;;;;5122584;27;20437;-66
2021/12/27 01:37:22;;;;;;;21.35;11.40;;;1.30;80.50;;;;;;5132109;27;20376;-65
2021/12/27 01:39:48;;;;;;;21.88;11.50;;;1.40;80.60;;;;;;5115511;27;20044;-66
2021/12/27 01:42:13;;;;;;;15.77;10.32;;;1.40;80.60;;;;;;5122108;27;20035;-65
2021/12/27 01:44:40;;;;;;;17.25;10.88;;;1.30;80.50;;;;;;5129617;27;20043;-66
2021/12/27 01:47:08;;;;;;;17.15;10.85;;;1.30;80.90;;;;;;5130399;27;20487;-66
2021/12/27 01:49:33;;;;;;;20.02;12.48;;;1.30;80.80;;;;;;5126639;27;20748;-66
2021/12/27 01:51:59;;;;;;;21.02;11.68;;;1.30;80.90;;;;;;5123086;27;20134;-66
2021/12/27 01:54:25;;;;;;;19.80;11.13;;;1.30;80.80;;;;;;5125166;27;20118;-66
2021/12/27 01:56:52;;;;;;;20.13;11.63;;;1.30;80.80;;;;;;5119830;27;20445;-65
2021/12/27 01:59:18;;;;;;;21.67;11.73;;;1.30;81.00;;;;;;5122023;27;20075;-65
2021/12/27 02:01:44;;;;;;;16.85;10.68;;;1.30;81.10;;;;;;5119745;27;20054;-66
2021/12/27 02:04:10;;;;;;;18.75;11.32;;;1.30;81.20;;;;;;5129974;27;20082;-66
2021/12/27 02:06:36;;;;;;;17.25;10.30;;;1.30;81.10;;;;;;5130305;27;20067;-65
2021/12/27 02:09:04;;;;;;;18.63;10.98;;;1.40;81.10;;;;;;5130547;27;20592;-66
2021/12/27 02:11:34;;;;;;;19.25;10.95;;;1.40;81.30;;;;;;5131078;27;20043;-66
2021/12/27 02:14:04;;;;;;;19.92;11.82;;;1.40;81.30;;;;;;5127353;27;20085;-66
2021/12/27 02:16:30;;;;;;;18.13;10.45;;;1.40;81.10;;;;;;5126161;27;20053;-66
2021/12/27 02:18:55;;;;;;;18.65;11.10;;;1.40;81.20;;;;;;5129487;27;20035;-66
2021/12/27 02:21:23;;;;;;;17.50;10.80;;;1.40;81.20;;;;;;5095462;27;20074;-66
2021/12/27 02:23:50;;;;;;;19.70;12.25;;;1.40;81.70;;;;;;5123860;27;20347;-66
2021/12/27 02:26:16;;;;;;;20.30;11.20;;;1.40;81.40;;;;;;5116280;27;20089;-66
2021/12/27 02:28:42;;;;;;;17.35;10.88;;;1.50;81.60;;;;;;5121605;27;20516;-66
2021/12/27 02:31:08;;;;;;;19.30;12.30;;;1.50;81.40;;;;;;5116642;27;20035;-66
2021/12/27 02:33:39;;;;;;;18.75;11.25;;;1.60;81.40;;;;;;5127270;27;20114;-65
2021/12/27 02:36:06;;;;;;;20.15;12.68;;;1.50;81.40;;;;;;5109341;27;20508;-66
2021/12/27 02:38:34;;;;;;;18.10;11.32;;;1.60;81.50;;;;;;5109875;27;20443;-65
2021/12/27 02:41:00;;;;;;;19.23;10.43;;;1.60;81.50;;;;;;5129641;27;20570;-65
2021/12/27 02:43:28;;;;;;;21.02;11.77;;;1.60;81.40;;;;;;5130494;27;20296;-66
2021/12/27 02:45:59;;;;;;;21.85;11.50;;;1.60;81.30;;;;;;5129709;27;20047;-65
2021/12/27 02:48:28;;;;;;;20.58;11.43;;;1.60;81.40;;;;;;5130518;27;20035;-66
2021/12/27 02:50:55;;;;;;;16.33;10.45;;;1.60;81.50;;;;;;5127787;27;20047;-66
2021/12/27 02:53:23;;;;;;;18.95;12.07;;;1.60;81.40;;;;;;5110960;27;20095;-65
2021/12/27 02:55:50;;;;;;;18.88;12.43;;;1.60;81.70;;;;;;5129725;27;20496;-65
2021/12/27 02:58:16;;;;;;;18.73;11.38;;;1.60;81.50;;;;;;5106791;28;20055;-65
2021/12/27 03:00:53;;;;;;;20.02;12.00;;;1.70;81.50;;;;;;5108917;27;20554;-65
2021/12/27 03:03:19;;;;;;;20.17;10.45;;;1.70;81.40;;;;;;5130555;27;20111;-65
2021/12/27 03:05:46;;;;;;;21.60;12.75;;;1.70;81.60;;;;;;5129745;27;20132;-65
2021/12/27 03:08:15;;;;;;;18.25;11.27;;;1.70;81.50;;;;;;5129566;27;20042;-65
2021/12/27 03:10:43;;;;;;;21.45;12.15;;;1.70;81.60;;;;;;5110050;27;20403;-65
2021/12/27 03:13:24;;;;;;;22.58;11.95;;;1.70;81.70;;;;;;5129803;27;20035;-65
2021/12/27 03:15:52;;;;;;;19.23;11.20;;;1.70;81.60;;;;;;5129480;27;20043;-65
2021/12/27 03:18:19;;;;;;;21.58;11.75;;;1.70;81.70;;;;;;5122052;27;20397;-66
2021/12/27 03:20:45;;;;;;;18.38;10.88;;;1.70;81.70;;;;;;5127207;27;20035;-66
2021/12/27 03:23:11;;;;;;;21.20;12.57;;;1.80;81.70;;;;;;5123753;27;20598;-65
2021/12/27 03:25:37;;;;;;;19.55;11.68;;;1.80;81.70;;;;;;5095792;28;20455;-66
2021/12/27 03:28:03;;;;;;;20.77;12.05;;;1.80;81.80;;;;;;5124127;27;20123;-65
2021/12/27 03:30:29;;;;;;;21.90;13.38;;;1.70;82.10;;;;;;5127570;27;20144;-65
2021/12/27 03:32:55;;;;;;;21.25;12.55;;;1.80;82.10;;;;;;5111313;27;20387;-65
2021/12/27 03:35:34;;;;;;;18.73;11.95;;;1.80;82.20;;;;;;5129735;27;20047;-65
2021/12/27 03:38:02;;;;;;;21.15;12.85;;;1.80;82.30;;;;;;5113798;27;20112;-65
2021/12/27 03:40:28;;;;;;;17.48;10.70;;;1.80;82.40;;;;;;5127719;27;20045;-65
2021/12/27 03:42:55;;;;;;;22.83;12.95;;;1.70;82.50;;;;;;5117894;27;20092;-65
2021/12/27 03:45:24;;;;;;;21.20;12.02;;;1.70;82.70;;;;;;5126157;27;20035;-65
2021/12/27 03:47:50;;;;;;;20.23;12.40;;;1.70;82.70;;;;;;5118945;27;20027;-65
2021/12/27 03:50:17;;;;;;;18.15;11.55;;;1.70;82.80;;;;;;5128916;27;20593;-65
2021/12/27 03:52:42;;;;;;;17.73;11.43;;;1.70;83.00;;;;;;5128688;27;20039;-65
2021/12/27 03:55:09;;;;;;;23.02;13.88;;;1.60;83.30;;;;;;5128264;27;20043;-65
2021/12/27 03:57:38;;;;;;;20.13;12.50;;;1.60;83.60;;;;;;5128921;27;20418;-65
2021/12/27 04:00:27;;;;;;;21.55;13.60;;;1.60;83.80;;;;;;5102083;27;20138;-65
2021/12/27 04:02:56;;;;;;;22.08;13.07;;;1.60;84.10;;;;;;5103130;28;20047;-65
2021/12/27 04:05:22;;;;;;;20.58;11.90;;;1.60;84.10;;;;;;5124340;27;20043;-65
2021/12/27 04:07:56;;;;;;;22.42;14.52;;;1.60;84.00;;;;;;5127404;27;20080;-65
2021/12/27 04:10:23;;;;;;;24.25;13.73;;;1.60;84.40;;;;;;5128022;27;20050;-65
2021/12/27 04:12:48;;;;;;;22.75;14.00;;;1.60;84.50;;;;;;5122257;27;20045;-65
2021/12/27 04:15:14;;;;;;;20.60;13.63;;;1.60;84.20;;;;;;5124660;27;20055;-65
2021/12/27 04:17:40;;;;;;;22.35;13.13;;;1.60;84.40;;;;;;5127816;27;20035;-65
2021/12/27 04:20:06;;;;;;;23.20;13.88;;;1.60;84.50;;;;;;5127466;28;20126;-65
2021/12/27 04:22:33;;;;;;;23.02;12.68;;;1.60;85.20;;;;;;5123017;28;20039;-65
2021/12/27 04:25:00;;;;;;;25.77;13.10;;;1.60;84.90;;;;;;5118642;28;20086;-65
2021/12/27 04:27:25;;;;;;;19.88;13.23;;;1.60;85.00;;;;;;5119312;28;20057;-65
2021/12/27 04:29:51;;;;;;;22.58;13.38;;;1.60;85.10;;;;;;5123977;28;20419;-65
2021/12/27 04:32:17;;;;;;;25.83;14.90;;;1.60;85.20;;;;;;5102086;28;20600;-65
2021/12/27 04:34:42;;;;;;;22.60;14.50;;;1.60;85.30;;;;;;5127874;27;20051;-65
2021/12/27 04:37:08;;;;;;;22.00;14.32;;;1.60;85.40;;;;;;5125907;28;20126;-65
2021/12/27 04:39:34;;;;;;;22.80;13.55;;;1.60;86.10;;;;;;5126218;28;20047;-65
2021/12/27 04:41:59;;;;;;;23.05;13.43;;;1.60;86.10;;;;;;5117214;28;20054;-65
2021/12/27 04:44:25;;;;;;;24.08;15.07;;;1.60;86.00;;;;;;5115010;28;20123;-65
2021/12/27 04:46:51;;;;;;;26.45;14.20;;;1.60;86.40;;;;;;5128672;28;20081;-65
2021/12/27 04:49:16;;;;;;;22.58;14.13;;;1.60;86.20;;;;;;5122701;27;20077;-65
2021/12/27 04:51:43;;;;;;;28.23;15.07;;;1.60;86.40;;;;;;5133659;27;20081;-65
2021/12/27 04:54:09;;;;;;;21.25;14.00;;;1.50;86.50;;;;;;5131104;27;20057;-65
2021/12/27 04:56:35;;;;;;;21.83;14.15;;;1.60;86.70;;;;;;5133231;27;20457;-65
2021/12/27 04:59:00;;;;;;;22.17;13.98;;;1.50;86.50;;;;;;5127178;27;20047;-65
2021/12/27 05:01:26;;;;;;;24.98;15.18;;;1.50;86.40;;;;;;5127239;27;20058;-65
2021/12/27 05:03:52;;;;;;;27.17;15.13;;;1.50;86.60;;;;;;5127893;27;20419;-65
2021/12/27 05:06:18;;;;;;;25.45;14.40;;;1.50;86.80;;;;;;5130143;27;20514;-65
2021/12/27 05:08:43;;;;;;;22.95;14.25;;;1.50;86.80;;;;;;5131808;27;20035;-65
2021/12/27 05:11:09;;;;;;;26.40;15.13;;;1.40;86.60;;;;;;5132002;27;20043;-65
2021/12/27 05:13:36;;;;;;;26.95;13.70;;;1.50;86.70;;;;;;5088091;27;20051;-65
2021/12/27 05:16:02;;;;;;;24.10;14.15;;;1.50;86.50;;;;;;5127097;27;20043;-65
2021/12/27 05:18:28;;;;;;;27.13;14.48;;;1.40;86.30;;;;;;5133295;27;20085;-66
2021/12/27 05:20:54;;;;;;;23.23;14.05;;;1.50;86.30;;;;;;5131042;27;20639;-66
2021/12/27 05:23:20;;;;;;;32.55;15.13;;;1.50;86.40;;;;;;5127595;27;20043;-66
2021/12/27 05:25:46;;;;;;;24.35;14.73;;;1.50;86.40;;;;;;5114091;27;20857;-66
2021/12/27 05:28:12;;;;;;;26.00;15.48;;;1.50;86.50;;;;;;5132197;27;20055;-66
2021/12/27 05:30:39;;;;;;;23.52;13.77;;;1.50;86.60;;;;;;5114318;27;20058;-66
2021/12/27 05:33:04;;;;;;;23.55;14.93;;;1.50;86.50;;;;;;5114750;27;20398;-66
2021/12/27 05:35:30;;;;;;;27.33;13.93;;;1.60;86.40;;;;;;5132566;27;20035;-65
2021/12/27 05:37:56;;;;;;;22.30;13.15;;;1.60;86.50;;;;;;5131932;27;20043;-66
2021/12/27 05:40:23;;;;;;;23.65;14.00;;;1.60;86.80;;;;;;5131393;27;20157;-66
2021/12/27 05:42:50;;;;;;;23.73;13.10;;;1.50;86.90;;;;;;5132645;27;20050;-65
2021/12/27 05:45:17;;;;;;;25.70;13.85;;;1.60;87.10;;;;;;5125707;27;20042;-66
2021/12/27 05:47:43;;;;;;;26.88;14.98;;;1.50;87.00;;;;;;5128428;27;20035;-65
2021/12/27 05:50:11;;;;;;;24.95;15.38;;;1.50;87.10;;;;;;5131473;27;20043;-65
2021/12/27 05:52:36;;;;;;;25.58;14.27;;;1.50;87.20;;;;;;5125753;27;20150;-66
2021/12/27 05:55:07;;;;;;;26.50;14.00;;;1.50;87.40;;;;;;5124576;27;20046;-65
2021/12/27 05:57:35;;;;;;;31.35;17.05;;;1.50;87.30;;;;;;5126748;27;20144;-66
2021/12/27 06:00:00;;;;;;;24.00;14.15;;;1.50;87.20;;;;;;5126175;27;20530;-66
2021/12/27 06:02:26;;;;;;;33.45;16.80;;;1.50;87.40;;;;;;5126546;27;20043;-65
2021/12/27 06:04:52;;;;;;;30.75;15.43;;;1.40;87.80;;;;;;5112849;27;20051;-65
2021/12/27 06:07:18;;;;;;;28.38;15.57;;;1.40;87.90;;;;;;5129692;27;20099;-65
2021/12/27 06:09:44;;;;;;;28.42;14.65;;;1.40;88.00;;;;;;5131820;27;20077;-65
2021/12/27 06:12:10;;;;;;;37.47;16.17;;;1.40;88.00;;;;;;5130210;27;20047;-66
2021/12/27 06:14:36;;;;;;;33.60;15.68;;;1.40;87.80;;;;;;5129512;27;20046;-65
2021/12/27 06:17:02;;;;;;;28.65;15.18;;;1.40;88.10;;;;;;5128893;27;20046;-65
2021/12/27 06:19:27;;;;;;;32.15;15.80;;;1.40;88.00;;;;;;5132553;27;20039;-65
2021/12/27 06:21:53;;;;;;;28.85;16.25;;;1.40;87.90;;;;;;5130857;27;20083;-65
2021/12/27 06:24:19;;;;;;;37.17;16.90;;;1.50;87.90;;;;;;5131800;27;20039;-66
2021/12/27 06:26:45;;;;;;;30.85;14.48;;;1.60;88.00;;;;;;5131901;27;20035;-65
2021/12/27 06:29:10;;;;;;;31.08;14.68;;;1.60;87.90;;;;;;5132273;27;20039;-65
2021/12/27 06:31:36;;;;;;;38.72;16.08;;;1.60;87.90;;;;;;5130410;27;20039;-66
2021/12/27 06:34:02;;;;;;;38.03;17.48;;;1.60;87.80;;;;;;5131340;27;20062;-66
2021/12/27 06:36:27;;;;;;;36.45;17.23;;;1.60;87.90;;;;;;5112602;27;20043;-65
2021/12/27 06:38:53;;;;;;;34.70;16.90;;;1.60;87.70;;;;;;5131096;27;20047;-65
2021/12/27 06:41:19;;;;;;;33.63;16.90;;;1.70;87.70;;;;;;5131431;27;20566;-65
2021/12/27 06:43:44;;;;;;;32.72;16.80;;;1.70;87.60;;;;;;5113422;27;20043;-64
2021/12/27 06:46:10;;;;;;;32.17;16.52;;;1.70;87.60;;;;;;5131137;27;20038;-64
2021/12/27 06:48:36;;;;;;;23.25;11.50;;;1.70;87.60;;;;;;5131574;27;20039;-67
2021/12/27 06:51:01;;;;;;;31.95;17.33;;;2.10;91.40;;;;;;5094423;27;20047;-66
2021/12/27 06:53:30;;;;;;;32.72;17.33;;;2.60;90.90;;;;;;5130676;27;20042;-65
2021/12/27 06:55:57;;;;;;;34.03;16.67;;;2.60;89.80;;;;;;5112012;27;20049;-65
2021/12/27 06:58:23;;;;;;;29.75;14.90;;;2.50;88.70;;;;;;5112087;27;20117;-65
2021/12/27 07:00:50;;;;;;;30.05;16.63;;;2.40;88.20;;;;;;5129687;27;20051;-66
2021/12/27 07:03:16;;;;;;;35.40;15.88;;;2.40;87.70;;;;;;5130424;27;20380;-67
2021/12/27 07:05:42;;;;;;;28.13;14.82;;;2.40;87.40;;;;;;5130278;27;20088;-66
2021/12/27 07:08:10;;;;;;;33.47;16.63;;;2.40;87.20;;;;;;5130107;27;20046;-66
2021/12/27 07:10:36;;;;;;;30.60;15.48;;;2.30;87.10;;;;;;5112245;27;20086;-66
2021/12/27 07:13:04;;;;;;;31.63;16.30;;;2.20;87.00;;;;;;5129179;27;20074;-66
2021/12/27 07:15:30;;;;;;;32.00;16.08;;;2.20;87.10;;;;;;5128332;27;20039;-66
2021/12/27 07:17:57;;;;;;;28.38;15.85;;;2.10;87.00;;;;;;5129832;27;20094;-66
2021/12/27 07:20:22;;;;;;;29.90;15.60;;;2.10;87.00;;;;;;5129622;27;20055;-66
2021/12/27 07:22:48;;;;;;;34.58;16.48;;;2.10;87.00;;;;;;5129403;27;20060;-66
2021/12/27 07:25:14;;;;;;;35.33;16.83;;;2.10;87.10;;;;;;5111560;27;20038;-66
2021/12/27 07:27:40;;;;;;;36.38;17.38;;;2.00;87.10;;;;;;5130606;27;20084;-66
2021/12/27 07:30:08;;;;;;;29.67;15.18;;;2.00;87.10;;;;;;5104033;27;20521;-66
2021/12/27 07:32:34;;;;;;;30.02;17.25;;;2.00;87.10;;;;;;5111817;27;20256;-66
2021/12/27 07:35:00;;;;;;;40.55;17.75;;;2.00;87.30;;;;;;5130078;27;20481;-66
2021/12/27 07:37:26;;;;;;;32.33;16.90;;;2.00;87.30;;;;;;5130448;27;20035;-66
2021/12/27 07:39:51;;;;;;;35.90;17.00;;;2.00;87.50;;;;;;5111782;27;20046;-66
2021/12/27 07:42:17;;;;;;;36.15;17.92;;;2.00;87.70;;;;;;5130179;27;20035;-66
2021/12/27 07:44:44;;;;;;;41.58;18.35;;;2.00;87.70;;;;;;5130453;27;20475;-66
2021/12/27 07:47:09;;;;;;;37.67;17.75;;;2.00;87.70;;;;;;5124749;27;20031;-65
2021/12/27 07:49:37;;;;;;;37.45;18.02;;;2.00;87.60;;;;;;5111098;27;20035;-65
2021/12/27 07:52:03;;;;;;;35.80;16.15;;;2.00;87.70;;;;;;5129149;27;20047;-65
2021/12/27 07:54:29;;;;;;;41.97;19.95;;;2.00;87.80;;;;;;5128881;27;20043;-65
2021/12/27 07:56:55;;;;;;;41.47;18.77;;;1.90;88.30;;;;;;5129766;27;20043;-66
2021/12/27 07:59:21;;;;;;;48.28;19.10;;;1.90;88.40;;;;;;5125945;27;20051;-66
2021/12/27 08:01:46;;;;;;;43.80;19.80;;;1.80;88.60;;;;;;5122929;27;20051;-66
2021/12/27 08:04:12;;;;;;;41.03;19.77;;;1.80;88.80;;;;;;5129292;27;20429;-66
2021/12/27 08:06:38;;;;;;;44.30;19.08;;;1.80;88.50;;;;;;5129715;27;20042;-66
2021/12/27 08:09:05;;;;;;;44.45;19.48;;;1.80;88.70;;;;;;5129272;27;20051;-65
2021/12/27 08:11:31;;;;;;;40.13;18.95;;;1.70;89.00;;;;;;5119621;27;20080;-65
2021/12/27 08:13:56;;;;;;;46.72;19.05;;;1.70;89.20;;;;;;5110810;28;20113;-66
2021/12/27 08:16:24;;;;;;;44.10;17.95;;;1.70;89.50;;;;;;5120894;27;20039;-66
2021/12/27 08:18:53;;;;;;;49.55;19.13;;;1.70;89.40;;;;;;5091811;28;20097;-66
2021/12/27 08:21:21;;;;;;;46.42;19.27;;;1.70;89.50;;;;;;5127550;27;20559;-65
2021/12/27 08:23:47;;;;;;;41.35;17.55;;;1.70;89.80;;;;;;5118204;28;20039;-66
2021/12/27 08:26:13;;;;;;;42.72;19.02;;;1.70;89.80;;;;;;5128603;28;20406;-66
2021/12/27 08:28:39;;;;;;;42.70;19.77;;;1.80;89.70;;;;;;5128249;28;20492;-66
2021/12/27 08:31:05;;;;;;;45.13;18.42;;;1.80;89.60;;;;;;5122746;28;21166;-66
2021/12/27 08:33:31;;;;;;;47.15;19.75;;;1.80;89.30;;;;;;5127948;28;20384;-66
2021/12/27 08:36:00;;;;;;;52.58;19.25;;;1.90;89.40;;;;;;5114974;28;20027;-66
2021/12/27 08:38:25;;;;;;;49.00;18.40;;;2.00;89.30;;;;;;5125646;28;20031;-65
2021/12/27 08:40:51;;;;;;;37.17;20.27;;;2.00;89.20;;;;;;5128209;28;20092;-65
2021/12/27 08:43:19;;;;;;;52.33;19.13;;;2.00;89.20;;;;;;5128430;28;20035;-65
2021/12/27 08:45:45;;;;;;;49.42;23.25;;;2.00;89.30;;;;;;5095722;28;20108;-65
2021/12/27 08:48:10;;;;;;;46.50;19.90;;;2.00;89.40;;;;;;5111712;28;20035;-65
2021/12/27 08:50:39;;;;;;;53.35;21.17;;;2.10;89.30;;;;;;5117696;28;20379;-64
2021/12/27 08:53:08;;;;;;;47.45;18.25;;;2.10;89.30;;;;;;5077569;28;20108;-64
2021/12/27 08:55:35;;;;;;;46.40;21.50;;;2.10;89.20;;;;;;5102591;28;20043;-64
2021/12/27 08:58:02;;;;;;;45.08;19.88;;;2.20;89.30;;;;;;5114254;28;20043;-64
2021/12/27 09:00:28;;;;;;;54.05;19.92;;;2.20;89.30;;;;;;5108487;28;20047;-64
2021/12/27 09:02:54;;;;;;;43.92;18.27;;;2.30;89.40;;;;;;5117144;28;20494;-65
2021/12/27 09:05:20;;;;;;;48.67;20.88;;;2.40;89.40;;;;;;5107814;28;20108;-66
2021/12/27 09:07:45;;;;;;;43.30;20.83;;;3.00;92.20;;;;;;5088253;28;20488;-66
2021/12/27 09:10:11;;;;;;;41.80;18.90;;;4.20;88.30;;;;;;5112627;28;20046;-63
2021/12/27 09:12:39;;;;;;;34.88;16.52;;;5.00;84.60;;;;;;5112197;28;20058;-64
2021/12/27 09:15:06;;;;;;;39.35;17.23;;;5.00;84.00;;;;;;5118601;28;20054;-64
2021/12/27 09:17:32;;;;;;;44.08;19.85;;;4.70;84.00;;;;;;5116129;28;20035;-64
2021/12/27 09:19:57;;;;;;;39.65;18.67;;;4.40;84.00;;;;;;5103868;28;20384;-64
2021/12/27 09:22:23;;;;;;;42.22;17.60;;;4.10;84.30;;;;;;5078757;28;20039;-64
2021/12/27 09:24:50;;;;;;;43.70;18.00;;;3.90;84.70;;;;;;5086580;28;20039;-64
2021/12/27 09:27:17;;;;;;;36.05;16.35;;;3.60;85.00;;;;;;5099492;28;20074;-64
2021/12/27 09:29:43;;;;;;;38.55;17.20;;;3.40;85.50;;;;;;5116497;28;20031;-64
2021/12/27 09:32:11;;;;;;;34.63;16.70;;;3.30;85.90;;;;;;5102897;28;20055;-65
2021/12/27 09:34:37;;;;;;;40.28;16.48;;;3.20;86.20;;;;;;5105123;27;20505;-66
2021/12/27 09:37:04;;;;;;;32.88;17.30;;;3.10;86.50;;;;;;5120944;27;20499;-63
2021/12/27 09:39:29;;;;;;;37.03;17.02;;;3.00;86.80;;;;;;5111246;27;20044;-64
2021/12/27 09:41:55;;;;;;;36.60;16.35;;;3.00;86.90;;;;;;5101164;27;20042;-64
2021/12/27 09:44:21;;;;;;;39.75;17.40;;;3.00;87.10;;;;;;5099939;27;20042;-65
2021/12/27 09:46:49;;;;;;;39.58;15.88;;;3.00;87.20;;;;;;5125838;27;20180;-64
2021/12/27 09:49:17;;;;;;;38.53;16.23;;;3.00;87.10;;;;;;5125676;27;20043;-64
2021/12/27 09:51:44;;;;;;;43.95;16.40;;;3.00;87.40;;;;;;5099939;28;20048;-64
2021/12/27 09:54:10;;;;;;;31.75;14.68;;;2.90;87.50;;;;;;5128489;27;20043;-64
2021/12/27 09:56:37;;;;;;;37.95;15.43;;;2.90;87.80;;;;;;5095707;27;20046;-64
2021/12/27 09:59:04;;;;;;;35.40;16.30;;;2.90;87.80;;;;;;5131104;27;20051;-64
2021/12/27 10:01:30;;;;;;;40.78;16.15;;;2.70;88.10;;;;;;5113498;27;20054;-64
2021/12/27 10:03:57;;;;;;;40.78;16.70;;;2.70;88.20;;;;;;5131264;27;20039;-64
2021/12/27 10:06:26;;;;;;;38.45;15.98;;;2.70;88.50;;;;;;5112816;27;20521;-64
2021/12/27 10:09:00;;;;;;;33.13;15.02;;;2.70;88.40;;;;;;5125146;27;20095;-64
2021/12/27 10:11:31;;;;;;;33.58;15.35;;;2.80;88.40;;;;;;5123751;27;20119;-64
2021/12/27 10:14:06;;;;;;;38.60;14.03;;;2.80;88.40;;;;;;5122871;27;20093;-65
2021/12/27 10:16:39;;;;;;;33.25;14.85;;;2.80;88.50;;;;;;5126750;27;20042;-64
2021/12/27 10:19:07;;;;;;;37.80;17.77;;;2.80;88.50;;;;;;5117926;27;20043;-65
2021/12/27 10:21:34;;;;;;;32.05;13.63;;;2.90;88.70;;;;;;5131667;27;20114;-63
2021/12/27 10:24:29;;;;;;;35.83;15.88;;;2.90;88.60;;;;;;5131192;27;20730;-64
2021/12/27 10:26:57;;;;;;;35.72;17.27;;;2.90;88.60;;;;;;5128161;27;20081;-65
2021/12/27 10:29:27;;;;;;;33.00;14.95;;;2.90;88.80;;;;;;5130856;27;20167;-64
2021/12/27 10:32:10;;;;;;;42.13;16.80;;;3.00;88.90;;;;;;5077202;28;20051;-64
2021/12/27 10:34:45;;;;;;;42.33;17.30;;;3.00;89.10;;;;;;5128916;27;20039;-63
2021/12/27 10:37:24;;;;;;;35.20;16.05;;;3.00;89.00;;;;;;5111170;27;20050;-64
2021/12/27 10:40:11;;;;;;;37.88;15.35;;;3.10;88.80;;;;;;5116134;27;20077;-64
2021/12/27 10:42:39;;;;;;;40.25;17.05;;;3.10;88.70;;;;;;5129083;27;20138;-64
2021/12/27 10:45:13;;;;;;;39.95;16.33;;;3.10;88.70;;;;;;5128593;27;20068;-64
2021/12/27 10:47:42;;;;;;;42.92;21.05;;;3.10;88.60;;;;;;5129982;27;20484;-64
2021/12/27 10:50:17;;;;;;;35.65;17.63;;;3.10;88.70;;;;;;5111428;27;20049;-64
2021/12/27 10:53:01;;;;;;;35.25;18.48;;;3.20;88.60;;;;;;5131058;27;20043;-64
2021/12/27 10:55:37;;;;;;;43.42;21.05;;;3.10;88.70;;;;;;5128500;27;20042;-64
2021/12/27 10:58:14;;;;;;;51.60;18.75;;;3.20;88.60;;;;;;5128838;27;20047;-64
2021/12/27 11:00:41;;;;;;;37.30;17.27;;;3.20;88.60;;;;;;5127208;27;20518;-63
2021/12/27 11:03:20;;;;;;;55.08;17.55;;;3.10;89.00;;;;;;5099407;27;20046;-63
2021/12/27 11:05:47;;;;;;;37.38;17.95;;;3.20;89.00;;;;;;5129224;27;20539;-63
2021/12/27 11:08:12;;;;;;;34.33;17.52;;;3.20;89.30;;;;;;5125552;27;20071;-64
2021/12/27 11:10:38;;;;;;;41.20;17.92;;;3.30;89.30;;;;;;5130298;27;20078;-63
2021/12/27 11:13:04;;;;;;;39.63;17.80;;;3.30;89.30;;;;;;5111995;27;20046;-63
2021/12/27 11:15:34;;;;;;;37.92;16.27;;;3.40;89.40;;;;;;5125121;27;20043;-63
2021/12/27 11:18:00;;;;;;;36.13;18.80;;;3.40;89.20;;;;;;5127805;27;20050;-63
2021/12/27 11:20:27;;;;;;;34.67;17.63;;;3.40;89.20;;;;;;5123472;27;20395;-63
2021/12/27 11:22:58;;;;;;;44.80;18.52;;;3.40;89.40;;;;;;5129950;27;20431;-63
2021/12/27 11:25:29;;;;;;;42.42;18.05;;;3.50;89.50;;;;;;5126880;27;20096;-63
2021/12/27 11:27:55;;;;;;;42.83;18.48;;;3.40;89.50;;;;;;5123091;27;20039;-63
2021/12/27 11:30:28;;;;;;;41.60;20.83;;;3.30;89.60;;;;;;5123600;27;20601;-63
2021/12/27 11:33:16;;;;;;;47.50;19.58;;;3.40;89.60;;;;;;5124902;27;20035;-63
2021/12/27 11:35:57;;;;;;;45.85;22.52;;;3.40;89.40;;;;;;5128184;27;20541;-63
2021/12/27 11:38:32;;;;;;;40.17;17.98;;;3.50;89.50;;;;;;5108353;27;20074;-63
2021/12/27 11:40:59;;;;;;;40.28;18.10;;;3.50;89.60;;;;;;5125249;27;20414;-63
2021/12/27 11:43:47;;;;;;;48.50;17.92;;;3.40;89.90;;;;;;5128714;27;20441;-63
2021/12/27 11:46:13;;;;;;;43.05;18.08;;;3.50;89.90;;;;;;5126087;27;20069;-62
2021/12/27 11:48:48;;;;;;;44.25;18.38;;;3.50;89.80;;;;;;5121048;27;20042;-63
2021/12/27 11:51:15;;;;;;;42.35;18.90;;;3.50;89.70;;;;;;5100844;27;20499;-62
2021/12/27 11:53:40;;;;;;;48.08;19.02;;;3.50;89.90;;;;;;5126666;27;20044;-62
2021/12/27 11:56:11;;;;;;;41.25;19.38;;;3.50;89.90;;;;;;5129172;27;20557;-62
2021/12/27 11:58:45;;;;;;;46.42;19.98;;;3.50;90.00;;;;;;5128453;27;20127;-63
2021/12/27 12:01:20;;;;;;;36.45;19.00;;;3.50;90.10;;;;;;5129249;27;20046;-62
2021/12/27 12:03:46;;;;;;;47.10;20.58;;;3.50;90.10;;;;;;5108331;27;20400;-62
2021/12/27 12:06:35;;;;;;;49.28;18.67;;;3.50;90.00;;;;;;5125647;27;20487;-62
2021/12/27 12:09:01;;;;;;;48.38;21.17;;;3.60;89.80;;;;;;5110836;27;20384;-62
2021/12/27 12:11:34;;;;;;;43.25;18.42;;;3.60;89.90;;;;;;5125710;27;20518;-62
2021/12/27 12:14:23;;;;;;;43.83;19.98;;;3.70;89.90;;;;;;5129675;27;20458;-62
2021/12/27 12:16:49;;;;;;;40.88;18.98;;;3.70;89.80;;;;;;5129414;27;20032;-62
2021/12/27 12:19:15;;;;;;;42.75;18.67;;;3.70;89.90;;;;;;5109443;28;20108;-64
2021/12/27 12:21:50;;;;;;;47.88;18.65;;;3.70;89.80;;;;;;5128835;27;20529;-63
2021/12/27 12:24:21;;;;;;;64.57;36.28;;;3.80;89.90;;;;;;5124779;28;20047;-63
2021/12/27 12:26:50;;;;;;;49.92;19.35;;;3.80;90.20;;;;;;5129128;28;20039;-64
2021/12/27 12:29:15;;;;;;;42.35;20.80;;;4.00;90.60;;;;;;5125775;28;20050;-63
2021/12/27 12:31:41;;;;;;;52.80;20.38;;;4.10;90.20;;;;;;5127665;28;20514;-63
2021/12/27 12:34:15;;;;;;;42.40;19.60;;;4.10;89.80;;;;;;5128013;28;20042;-63
2021/12/27 12:36:54;;;;;;;46.72;18.98;;;4.10;89.70;;;;;;5120285;28;20071;-64
2021/12/27 12:39:21;;;;;;;39.95;19.27;;;4.10;89.70;;;;;;5103696;28;20483;-64
2021/12/27 12:41:50;;;;;;;46.17;21.15;;;4.10;89.70;;;;;;5123194;28;20088;-63
2021/12/27 12:44:18;;;;;;;50.17;19.70;;;4.10;89.60;;;;;;5088281;28;20124;-64
2021/12/27 12:46:49;;;;;;;42.63;19.55;;;4.10;89.70;;;;;;5127407;28;20065;-63